sensor_id;sensor_type;location;lat;lon;timestamp;P1;durP1;ratioP1;P2;durP2;ratioP2
51907;SDS011;39320;53.214;6.556;2022-12-24T00:00:05;4.60;;;4.30;;
51907;SDS011;39320;53.214;6.556;2022-12-24T00:02:31;4.57;;;4.18;;
51907;SDS011;39320;53.214;6.556;2022-12-24T00:04:57;4.50;;;4.20;;
51907;SDS011;39320;53.214;6.556;2022-12-24T00:07:23;4.82;;;4.45;;
51907;SDS011;39320;53.214;6.556;2022-12-24T00:09:48;4.32;;;4.03;;
51907;SDS011;39320;53.214;6.556;2022-12-24T00:12:14;4.28;;;3.97;;
51907;SDS011;39320;53.214;6.556;2022-12-24T00:14:40;4.13;;;3.83;;
51907;SDS011;39320;53.214;6.556;2022-12-24T00:17:06;4.70;;;4.40;;
51907;SDS011;39320;53.214;6.556;2022-12-24T00:19:32;4.72;;;4.43;;
51907;SDS011;39320;53.214;6.556;2022-12-24T00:21:57;4.55;;;4.25;;
51907;SDS011;39320;53.214;6.556;2022-12-24T00:24:23;3.72;;;3.47;;
51907;SDS011;39320;53.214;6.556;2022-12-24T00:26:49;4.22;;;3.92;;
51907;SDS011;39320;53.214;6.556;2022-12-24T00:29:15;4.22;;;3.92;;
51907;SDS011;39320;53.214;6.556;2022-12-24T00:31:40;4.78;;;4.40;;
51907;SDS011;39320;53.214;6.556;2022-12-24T00:34:06;4.20;;;3.90;;
51907;SDS011;39320;53.214;6.556;2022-12-24T00:36:32;4.45;;;4.15;;
51907;SDS011;39320;53.214;6.556;2022-12-24T00:38:58;4.50;;;4.15;;
51907;SDS011;39320;53.214;6.556;2022-12-24T00:41:24;3.80;;;3.50;;
51907;SDS011;39320;53.214;6.556;2022-12-24T00:46:20;4.32;;;4.03;;
51907;SDS011;39320;53.214;6.556;2022-12-24T00:48:46;3.60;;;3.35;;
51907;SDS011;39320;53.214;6.556;2022-12-24T00:51:12;4.40;;;4.00;;
51907;SDS011;39320;53.214;6.556;2022-12-24T00:53:38;4.00;;;3.70;;
51907;SDS011;39320;53.214;6.556;2022-12-24T00:56:05;3.88;;;3.58;;
51907;SDS011;39320;53.214;6.556;2022-12-24T00:58:31;3.80;;;3.50;;
51907;SDS011;39320;53.214;6.556;2022-12-24T01:00:57;4.55;;;4.25;;
51907;SDS011;39320;53.214;6.556;2022-12-24T01:03:23;3.78;;;3.47;;
51907;SDS011;39320;53.214;6.556;2022-12-24T01:10:49;4.20;;;3.90;;
51907;SDS011;39320;53.214;6.556;2022-12-24T01:13:15;3.78;;;3.47;;
51907;SDS011;39320;53.214;6.556;2022-12-24T01:15:41;4.20;;;3.90;;
51907;SDS011;39320;53.214;6.556;2022-12-24T01:18:06;4.00;;;3.75;;
51907;SDS011;39320;53.214;6.556;2022-12-24T01:20:32;4.10;;;3.80;;
51907;SDS011;39320;53.214;6.556;2022-12-24T01:22:58;4.00;;;3.70;;
51907;SDS011;39320;53.214;6.556;2022-12-24T01:25:24;3.88;;;3.58;;
51907;SDS011;39320;53.214;6.556;2022-12-24T01:27:50;4.03;;;3.72;;
51907;SDS011;39320;53.214;6.556;2022-12-24T01:30:15;3.70;;;3.50;;
51907;SDS011;39320;53.214;6.556;2022-12-24T01:32:41;3.60;;;3.40;;
51907;SDS011;39320;53.214;6.556;2022-12-24T01:35:07;4.30;;;4.00;;
51907;SDS011;39320;53.214;6.556;2022-12-24T01:37:34;3.95;;;3.75;;
51907;SDS011;39320;53.214;6.556;2022-12-24T01:40:00;3.75;;;3.45;;
51907;SDS011;39320;53.214;6.556;2022-12-24T01:42:46;3.50;;;3.30;;
51907;SDS011;39320;53.214;6.556;2022-12-24T01:48:13;3.42;;;3.22;;
51907;SDS011;39320;53.214;6.556;2022-12-24T01:50:44;3.92;;;3.63;;
51907;SDS011;39320;53.214;6.556;2022-12-24T01:53:11;3.55;;;3.33;;
51907;SDS011;39320;53.214;6.556;2022-12-24T01:55:39;4.20;;;3.90;;
51907;SDS011;39320;53.214;6.556;2022-12-24T01:58:05;4.07;;;3.78;;
51907;SDS011;39320;53.214;6.556;2022-12-24T02:00:33;4.13;;;3.83;;
51907;SDS011;39320;53.214;6.556;2022-12-24T02:02:59;3.72;;;3.53;;
51907;SDS011;39320;53.214;6.556;2022-12-24T02:05:27;3.75;;;3.55;;
51907;SDS011;39320;53.214;6.556;2022-12-24T02:07:53;4.80;;;4.50;;
51907;SDS011;39320;53.214;6.556;2022-12-24T02:10:21;3.95;;;3.65;;
51907;SDS011;39320;53.214;6.556;2022-12-24T02:12:47;4.53;;;4.22;;
51907;SDS011;39320;53.214;6.556;2022-12-24T02:15:14;4.40;;;4.10;;
51907;SDS011;39320;53.214;6.556;2022-12-24T02:23:48;4.82;;;4.43;;
51907;SDS011;39320;53.214;6.556;2022-12-24T02:34:55;4.32;;;4.03;;
51907;SDS011;39320;53.214;6.556;2022-12-24T02:37:26;4.15;;;3.85;;
51907;SDS011;39320;53.214;6.556;2022-12-24T02:40:14;4.03;;;3.72;;
51907;SDS011;39320;53.214;6.556;2022-12-24T02:42:45;4.20;;;3.90;;
51907;SDS011;39320;53.214;6.556;2022-12-24T02:45:17;4.05;;;3.75;;
51907;SDS011;39320;53.214;6.556;2022-12-24T02:47:46;3.92;;;3.63;;
51907;SDS011;39320;53.214;6.556;2022-12-24T02:50:14;3.90;;;3.60;;
51907;SDS011;39320;53.214;6.556;2022-12-24T02:52:42;4.00;;;3.70;;
51907;SDS011;39320;53.214;6.556;2022-12-24T02:55:15;3.97;;;3.67;;
51907;SDS011;39320;53.214;6.556;2022-12-24T03:00:42;4.53;;;4.22;;
51907;SDS011;39320;53.214;6.556;2022-12-24T03:06:11;4.35;;;4.05;;
51907;SDS011;39320;53.214;6.556;2022-12-24T03:09:08;4.50;;;4.20;;
51907;SDS011;39320;53.214;6.556;2022-12-24T03:12:09;4.13;;;3.83;;
51907;SDS011;39320;53.214;6.556;2022-12-24T03:14:40;4.40;;;4.10;;
51907;SDS011;39320;53.214;6.556;2022-12-24T03:17:07;4.43;;;4.13;;
51907;SDS011;39320;53.214;6.556;2022-12-24T03:19:34;4.35;;;4.05;;
51907;SDS011;39320;53.214;6.556;2022-12-24T03:22:01;3.65;;;3.42;;
51907;SDS011;39320;53.214;6.556;2022-12-24T03:24:31;4.40;;;4.10;;
51907;SDS011;39320;53.214;6.556;2022-12-24T03:26:57;4.72;;;4.43;;
51907;SDS011;39320;53.214;6.556;2022-12-24T03:29:24;4.28;;;3.97;;
51907;SDS011;39320;53.214;6.556;2022-12-24T03:31:50;3.85;;;3.60;;
51907;SDS011;39320;53.214;6.556;2022-12-24T03:34:25;3.90;;;3.60;;
51907;SDS011;39320;53.214;6.556;2022-12-24T03:36:51;3.78;;;3.47;;
51907;SDS011;39320;53.214;6.556;2022-12-24T03:39:16;3.67;;;3.38;;
51907;SDS011;39320;53.214;6.556;2022-12-24T03:41:42;4.25;;;3.95;;
51907;SDS011;39320;53.214;6.556;2022-12-24T03:44:08;3.47;;;3.28;;
51907;SDS011;39320;53.214;6.556;2022-12-24T03:46:34;3.50;;;3.30;;
51907;SDS011;39320;53.214;6.556;2022-12-24T03:49:00;3.05;;;2.85;;
51907;SDS011;39320;53.214;6.556;2022-12-24T03:51:26;3.47;;;2.70;;
51907;SDS011;39320;53.214;6.556;2022-12-24T03:53:52;2.88;;;2.67;;
51907;SDS011;39320;53.214;6.556;2022-12-24T03:56:20;2.70;;;2.50;;
51907;SDS011;39320;53.214;6.556;2022-12-24T03:58:47;4.70;;;2.65;;
51907;SDS011;39320;53.214;6.556;2022-12-24T04:01:13;2.60;;;2.40;;
51907;SDS011;39320;53.214;6.556;2022-12-24T04:03:39;2.45;;;2.25;;
51907;SDS011;39320;53.214;6.556;2022-12-24T04:06:07;2.88;;;2.67;;
51907;SDS011;39320;53.214;6.556;2022-12-24T04:08:34;2.38;;;2.17;;
51907;SDS011;39320;53.214;6.556;2022-12-24T04:11:01;2.80;;;2.60;;
51907;SDS011;39320;53.214;6.556;2022-12-24T04:13:29;2.88;;;2.58;;
51907;SDS011;39320;53.214;6.556;2022-12-24T04:15:58;3.35;;;3.05;;
51907;SDS011;39320;53.214;6.556;2022-12-24T04:18:25;2.90;;;2.40;;
51907;SDS011;39320;53.214;6.556;2022-12-24T04:20:51;3.13;;;2.33;;
51907;SDS011;39320;53.214;6.556;2022-12-24T04:23:17;2.75;;;2.55;;
51907;SDS011;39320;53.214;6.556;2022-12-24T04:25:43;3.30;;;3.00;;
51907;SDS011;39320;53.214;6.556;2022-12-24T04:28:08;3.85;;;2.70;;
51907;SDS011;39320;53.214;6.556;2022-12-24T04:30:34;2.78;;;2.55;;
51907;SDS011;39320;53.214;6.556;2022-12-24T04:33:02;2.90;;;2.55;;
51907;SDS011;39320;53.214;6.556;2022-12-24T04:35:27;3.38;;;2.80;;
51907;SDS011;39320;53.214;6.556;2022-12-24T04:37:53;2.65;;;2.45;;
51907;SDS011;39320;53.214;6.556;2022-12-24T04:40:19;4.40;;;2.65;;
51907;SDS011;39320;53.214;6.556;2022-12-24T04:42:44;3.50;;;2.80;;
51907;SDS011;39320;53.214;6.556;2022-12-24T04:45:10;3.47;;;2.40;;
51907;SDS011;39320;53.214;6.556;2022-12-24T04:47:36;4.13;;;2.75;;
51907;SDS011;39320;53.214;6.556;2022-12-24T04:50:03;3.85;;;2.70;;
51907;SDS011;39320;53.214;6.556;2022-12-24T04:52:29;4.82;;;2.85;;
51907;SDS011;39320;53.214;6.556;2022-12-24T04:54:55;4.43;;;2.53;;
51907;SDS011;39320;53.214;6.556;2022-12-24T04:57:20;5.20;;;3.05;;
51907;SDS011;39320;53.214;6.556;2022-12-24T04:59:46;3.97;;;2.33;;
51907;SDS011;39320;53.214;6.556;2022-12-24T05:02:12;5.28;;;2.70;;
51907;SDS011;39320;53.214;6.556;2022-12-24T05:04:37;4.78;;;2.80;;
51907;SDS011;39320;53.214;6.556;2022-12-24T05:07:03;4.22;;;2.47;;
51907;SDS011;39320;53.214;6.556;2022-12-24T05:09:29;3.70;;;2.63;;
51907;SDS011;39320;53.214;6.556;2022-12-24T05:11:55;4.28;;;2.63;;
51907;SDS011;39320;53.214;6.556;2022-12-24T05:14:20;3.80;;;2.75;;
51907;SDS011;39320;53.214;6.556;2022-12-24T05:16:46;4.40;;;2.70;;
51907;SDS011;39320;53.214;6.556;2022-12-24T05:19:12;5.25;;;2.40;;
51907;SDS011;39320;53.214;6.556;2022-12-24T05:21:38;5.03;;;2.83;;
51907;SDS011;39320;53.214;6.556;2022-12-24T05:24:04;5.57;;;2.50;;
51907;SDS011;39320;53.214;6.556;2022-12-24T05:26:49;3.70;;;2.63;;
51907;SDS011;39320;53.214;6.556;2022-12-24T05:29:19;3.67;;;2.63;;
51907;SDS011;39320;53.214;6.556;2022-12-24T05:31:45;6.97;;;3.40;;
51907;SDS011;39320;53.214;6.556;2022-12-24T05:34:11;5.05;;;2.92;;
51907;SDS011;39320;53.214;6.556;2022-12-24T05:36:38;5.20;;;2.95;;
51907;SDS011;39320;53.214;6.556;2022-12-24T05:39:04;6.05;;;3.28;;
51907;SDS011;39320;53.214;6.556;2022-12-24T05:41:31;3.80;;;2.63;;
51907;SDS011;39320;53.214;6.556;2022-12-24T05:43:56;6.15;;;2.75;;
51907;SDS011;39320;53.214;6.556;2022-12-24T05:46:23;6.35;;;3.05;;
51907;SDS011;39320;53.214;6.556;2022-12-24T05:48:50;4.85;;;2.85;;
51907;SDS011;39320;53.214;6.556;2022-12-24T05:51:17;5.03;;;2.90;;
51907;SDS011;39320;53.214;6.556;2022-12-24T05:53:44;4.28;;;2.65;;
51907;SDS011;39320;53.214;6.556;2022-12-24T05:56:12;5.35;;;3.00;;
51907;SDS011;39320;53.214;6.556;2022-12-24T05:58:40;4.45;;;2.63;;
51907;SDS011;39320;53.214;6.556;2022-12-24T06:01:07;4.80;;;2.80;;
51907;SDS011;39320;53.214;6.556;2022-12-24T06:03:34;5.40;;;3.40;;
51907;SDS011;39320;53.214;6.556;2022-12-24T06:06:01;4.65;;;2.83;;
51907;SDS011;39320;53.214;6.556;2022-12-24T06:08:33;4.65;;;3.10;;
51907;SDS011;39320;53.214;6.556;2022-12-24T06:11:00;4.82;;;2.85;;
51907;SDS011;39320;53.214;6.556;2022-12-24T06:13:28;6.05;;;3.13;;
51907;SDS011;39320;53.214;6.556;2022-12-24T06:15:54;5.60;;;3.42;;
51907;SDS011;39320;53.214;6.556;2022-12-24T06:18:21;5.80;;;3.20;;
51907;SDS011;39320;53.214;6.556;2022-12-24T06:20:50;4.72;;;2.83;;
51907;SDS011;39320;53.214;6.556;2022-12-24T06:23:17;7.03;;;3.15;;
51907;SDS011;39320;53.214;6.556;2022-12-24T06:25:43;4.68;;;2.75;;
51907;SDS011;39320;53.214;6.556;2022-12-24T06:28:10;6.50;;;3.20;;
51907;SDS011;39320;53.214;6.556;2022-12-24T06:30:35;4.53;;;2.63;;
51907;SDS011;39320;53.214;6.556;2022-12-24T06:33:01;7.50;;;3.17;;
51907;SDS011;39320;53.214;6.556;2022-12-24T06:35:27;5.63;;;3.00;;
51907;SDS011;39320;53.214;6.556;2022-12-24T06:37:54;5.68;;;3.08;;
51907;SDS011;39320;53.214;6.556;2022-12-24T06:40:20;6.65;;;3.35;;
51907;SDS011;39320;53.214;6.556;2022-12-24T06:42:46;6.30;;;3.22;;
51907;SDS011;39320;53.214;6.556;2022-12-24T06:45:12;5.10;;;3.22;;
51907;SDS011;39320;53.214;6.556;2022-12-24T06:47:37;6.65;;;3.00;;
51907;SDS011;39320;53.214;6.556;2022-12-24T06:50:03;4.25;;;3.10;;
51907;SDS011;39320;53.214;6.556;2022-12-24T06:52:30;4.20;;;3.35;;
51907;SDS011;39320;53.214;6.556;2022-12-24T06:54:55;4.40;;;3.03;;
51907;SDS011;39320;53.214;6.556;2022-12-24T06:57:21;7.18;;;3.65;;
51907;SDS011;39320;53.214;6.556;2022-12-24T06:59:47;7.50;;;3.45;;
51907;SDS011;39320;53.214;6.556;2022-12-24T07:02:13;5.15;;;3.05;;
51907;SDS011;39320;53.214;6.556;2022-12-24T07:04:38;5.63;;;3.33;;
51907;SDS011;39320;53.214;6.556;2022-12-24T07:07:04;5.13;;;3.28;;
51907;SDS011;39320;53.214;6.556;2022-12-24T07:09:30;4.35;;;3.00;;
51907;SDS011;39320;53.214;6.556;2022-12-24T07:11:56;5.88;;;2.90;;
51907;SDS011;39320;53.214;6.556;2022-12-24T07:14:21;5.05;;;3.03;;
51907;SDS011;39320;53.214;6.556;2022-12-24T07:16:47;6.90;;;3.22;;
51907;SDS011;39320;53.214;6.556;2022-12-24T07:19:14;6.20;;;3.28;;
51907;SDS011;39320;53.214;6.556;2022-12-24T07:21:39;4.57;;;2.97;;
51907;SDS011;39320;53.214;6.556;2022-12-24T07:24:05;5.40;;;2.90;;
51907;SDS011;39320;53.214;6.556;2022-12-24T07:26:31;5.20;;;3.00;;
51907;SDS011;39320;53.214;6.556;2022-12-24T07:28:57;6.72;;;2.38;;
51907;SDS011;39320;53.214;6.556;2022-12-24T07:31:23;5.55;;;3.22;;
51907;SDS011;39320;53.214;6.556;2022-12-24T07:33:48;5.63;;;3.08;;
51907;SDS011;39320;53.214;6.556;2022-12-24T07:36:17;7.30;;;3.40;;
51907;SDS011;39320;53.214;6.556;2022-12-24T07:38:44;5.85;;;4.15;;
51907;SDS011;39320;53.214;6.556;2022-12-24T07:41:10;5.78;;;3.22;;
51907;SDS011;39320;53.214;6.556;2022-12-24T07:43:36;6.35;;;3.13;;
51907;SDS011;39320;53.214;6.556;2022-12-24T07:46:03;4.32;;;2.67;;
51907;SDS011;39320;53.214;6.556;2022-12-24T07:48:30;6.18;;;3.50;;
51907;SDS011;39320;53.214;6.556;2022-12-24T07:50:56;8.52;;;3.30;;
51907;SDS011;39320;53.214;6.556;2022-12-24T07:53:24;4.28;;;3.17;;
51907;SDS011;39320;53.214;6.556;2022-12-24T07:55:51;4.95;;;2.85;;
51907;SDS011;39320;53.214;6.556;2022-12-24T07:58:17;6.35;;;3.78;;
51907;SDS011;39320;53.214;6.556;2022-12-24T08:00:43;3.42;;;2.92;;
51907;SDS011;39320;53.214;6.556;2022-12-24T08:03:14;5.35;;;3.28;;
51907;SDS011;39320;53.214;6.556;2022-12-24T08:05:41;4.60;;;3.30;;
51907;SDS011;39320;53.214;6.556;2022-12-24T08:08:07;5.43;;;3.20;;
51907;SDS011;39320;53.214;6.556;2022-12-24T08:10:33;7.45;;;3.38;;
51907;SDS011;39320;53.214;6.556;2022-12-24T08:12:59;4.38;;;3.58;;
51907;SDS011;39320;53.214;6.556;2022-12-24T08:15:27;5.35;;;2.88;;
51907;SDS011;39320;53.214;6.556;2022-12-24T08:17:55;6.70;;;3.75;;
51907;SDS011;39320;53.214;6.556;2022-12-24T08:20:20;5.07;;;3.53;;
51907;SDS011;39320;53.214;6.556;2022-12-24T08:22:46;7.22;;;3.45;;
51907;SDS011;39320;53.214;6.556;2022-12-24T08:25:12;7.60;;;3.92;;
51907;SDS011;39320;53.214;6.556;2022-12-24T08:27:37;7.38;;;3.90;;
51907;SDS011;39320;53.214;6.556;2022-12-24T08:30:04;7.55;;;4.03;;
51907;SDS011;39320;53.214;6.556;2022-12-24T08:32:30;6.25;;;3.30;;
51907;SDS011;39320;53.214;6.556;2022-12-24T08:34:56;6.93;;;3.47;;
51907;SDS011;39320;53.214;6.556;2022-12-24T08:37:22;6.60;;;3.83;;
51907;SDS011;39320;53.214;6.556;2022-12-24T08:39:47;5.95;;;3.58;;
51907;SDS011;39320;53.214;6.556;2022-12-24T08:42:13;7.05;;;3.50;;
51907;SDS011;39320;53.214;6.556;2022-12-24T08:44:39;7.10;;;3.60;;
51907;SDS011;39320;53.214;6.556;2022-12-24T08:47:05;4.95;;;3.28;;
51907;SDS011;39320;53.214;6.556;2022-12-24T08:49:30;6.82;;;3.40;;
51907;SDS011;39320;53.214;6.556;2022-12-24T08:51:56;6.93;;;4.18;;
51907;SDS011;39320;53.214;6.556;2022-12-24T08:54:22;7.07;;;3.60;;
51907;SDS011;39320;53.214;6.556;2022-12-24T08:56:49;6.72;;;3.67;;
51907;SDS011;39320;53.214;6.556;2022-12-24T08:59:15;4.57;;;3.22;;
51907;SDS011;39320;53.214;6.556;2022-12-24T09:01:41;5.82;;;3.45;;
51907;SDS011;39320;53.214;6.556;2022-12-24T09:04:07;6.88;;;3.28;;
51907;SDS011;39320;53.214;6.556;2022-12-24T09:06:33;6.53;;;3.50;;
51907;SDS011;39320;53.214;6.556;2022-12-24T09:09:01;7.65;;;3.42;;
51907;SDS011;39320;53.214;6.556;2022-12-24T09:11:27;4.07;;;3.00;;
51907;SDS011;39320;53.214;6.556;2022-12-24T09:13:53;6.85;;;3.88;;
51907;SDS011;39320;53.214;6.556;2022-12-24T09:16:19;6.38;;;3.80;;
51907;SDS011;39320;53.214;6.556;2022-12-24T09:18:45;7.30;;;3.90;;
51907;SDS011;39320;53.214;6.556;2022-12-24T09:21:12;6.45;;;3.85;;
51907;SDS011;39320;53.214;6.556;2022-12-24T09:23:39;7.47;;;3.65;;
51907;SDS011;39320;53.214;6.556;2022-12-24T09:26:13;6.05;;;3.72;;
51907;SDS011;39320;53.214;6.556;2022-12-24T09:28:41;6.90;;;3.13;;
51907;SDS011;39320;53.214;6.556;2022-12-24T09:31:06;5.60;;;3.65;;
51907;SDS011;39320;53.214;6.556;2022-12-24T09:33:34;5.43;;;3.05;;
51907;SDS011;39320;53.214;6.556;2022-12-24T09:36:02;6.50;;;3.83;;
51907;SDS011;39320;53.214;6.556;2022-12-24T09:38:28;5.53;;;3.45;;
51907;SDS011;39320;53.214;6.556;2022-12-24T09:40:55;6.97;;;3.78;;
51907;SDS011;39320;53.214;6.556;2022-12-24T09:43:26;8.70;;;3.85;;
51907;SDS011;39320;53.214;6.556;2022-12-24T09:46:08;7.20;;;3.33;;
51907;SDS011;39320;53.214;6.556;2022-12-24T09:48:38;7.40;;;3.75;;
51907;SDS011;39320;53.214;6.556;2022-12-24T09:51:09;5.78;;;3.65;;
51907;SDS011;39320;53.214;6.556;2022-12-24T09:56:14;7.10;;;3.60;;
51907;SDS011;39320;53.214;6.556;2022-12-24T09:58:46;9.13;;;3.88;;
51907;SDS011;39320;53.214;6.556;2022-12-24T10:01:18;6.32;;;3.13;;
51907;SDS011;39320;53.214;6.556;2022-12-24T10:03:44;7.80;;;3.40;;
51907;SDS011;39320;53.214;6.556;2022-12-24T10:06:18;6.70;;;3.90;;
51907;SDS011;39320;53.214;6.556;2022-12-24T10:08:52;5.30;;;3.58;;
51907;SDS011;39320;53.214;6.556;2022-12-24T10:28:13;5.85;;;3.47;;
51907;SDS011;39320;53.214;6.556;2022-12-24T10:33:30;5.82;;;3.47;;
51907;SDS011;39320;53.214;6.556;2022-12-24T10:36:14;5.63;;;3.30;;
51907;SDS011;39320;53.214;6.556;2022-12-24T10:38:42;7.15;;;3.58;;
51907;SDS011;39320;53.214;6.556;2022-12-24T10:41:09;5.63;;;3.83;;
51907;SDS011;39320;53.214;6.556;2022-12-24T10:43:35;9.50;;;4.05;;
51907;SDS011;39320;53.214;6.556;2022-12-24T10:46:05;8.27;;;3.88;;
51907;SDS011;39320;53.214;6.556;2022-12-24T10:49:02;6.32;;;3.60;;
51907;SDS011;39320;53.214;6.556;2022-12-24T10:51:39;6.05;;;3.40;;
51907;SDS011;39320;53.214;6.556;2022-12-24T10:54:27;8.27;;;3.50;;
51907;SDS011;39320;53.214;6.556;2022-12-24T10:56:56;7.55;;;3.60;;
51907;SDS011;39320;53.214;6.556;2022-12-24T10:59:25;7.85;;;3.88;;
51907;SDS011;39320;53.214;6.556;2022-12-24T11:01:52;6.15;;;4.05;;
51907;SDS011;39320;53.214;6.556;2022-12-24T11:04:19;9.00;;;3.78;;
51907;SDS011;39320;53.214;6.556;2022-12-24T11:09:32;6.35;;;3.13;;
51907;SDS011;39320;53.214;6.556;2022-12-24T11:11:59;7.88;;;3.22;;
51907;SDS011;39320;53.214;6.556;2022-12-24T11:14:32;7.72;;;3.40;;
51907;SDS011;39320;53.214;6.556;2022-12-24T11:17:01;5.75;;;3.28;;
51907;SDS011;39320;53.214;6.556;2022-12-24T11:19:30;6.20;;;3.33;;
51907;SDS011;39320;53.214;6.556;2022-12-24T11:22:02;5.88;;;2.97;;
51907;SDS011;39320;53.214;6.556;2022-12-24T11:24:33;8.05;;;3.63;;
51907;SDS011;39320;53.214;6.556;2022-12-24T11:30:19;8.05;;;3.20;;
51907;SDS011;39320;53.214;6.556;2022-12-24T11:35:25;6.10;;;3.13;;
51907;SDS011;39320;53.214;6.556;2022-12-24T11:40:27;5.90;;;3.17;;
51907;SDS011;39320;53.214;6.556;2022-12-24T11:43:04;6.18;;;2.90;;
51907;SDS011;39320;53.214;6.556;2022-12-24T11:45:31;5.05;;;2.70;;
51907;SDS011;39320;53.214;6.556;2022-12-24T11:47:58;5.18;;;2.80;;
51907;SDS011;39320;53.214;6.556;2022-12-24T11:50:32;6.35;;;2.83;;
51907;SDS011;39320;53.214;6.556;2022-12-24T11:55:41;3.80;;;2.38;;
51907;SDS011;39320;53.214;6.556;2022-12-24T12:01:01;4.38;;;2.65;;
51907;SDS011;39320;53.214;6.556;2022-12-24T12:03:44;5.13;;;3.00;;
51907;SDS011;39320;53.214;6.556;2022-12-24T12:06:48;5.60;;;2.90;;
51907;SDS011;39320;53.214;6.556;2022-12-24T12:09:26;4.82;;;2.65;;
51907;SDS011;39320;53.214;6.556;2022-12-24T12:12:14;5.70;;;2.80;;
51907;SDS011;39320;53.214;6.556;2022-12-24T12:14:52;5.25;;;2.88;;
51907;SDS011;39320;53.214;6.556;2022-12-24T12:17:29;4.80;;;2.67;;
51907;SDS011;39320;53.214;6.556;2022-12-24T12:25:39;5.47;;;2.67;;
51907;SDS011;39320;53.214;6.556;2022-12-24T12:34:02;6.43;;;2.35;;
51907;SDS011;39320;53.214;6.556;2022-12-24T12:37:34;3.58;;;2.10;;
51907;SDS011;39320;53.214;6.556;2022-12-24T12:39:53;5.38;;;2.40;;
51907;SDS011;39320;53.214;6.556;2022-12-24T12:42:28;4.28;;;2.83;;
51907;SDS011;39320;53.214;6.556;2022-12-24T12:45:10;3.60;;;1.95;;
51907;SDS011;39320;53.214;6.556;2022-12-24T12:48:06;6.70;;;2.92;;
51907;SDS011;39320;53.214;6.556;2022-12-24T12:53:43;4.63;;;3.00;;
51907;SDS011;39320;53.214;6.556;2022-12-24T12:56:30;4.50;;;2.80;;
51907;SDS011;39320;53.214;6.556;2022-12-24T12:59:13;5.20;;;2.95;;
51907;SDS011;39320;53.214;6.556;2022-12-24T13:20:49;4.72;;;2.63;;
51907;SDS011;39320;53.214;6.556;2022-12-24T13:23:17;5.05;;;2.95;;
51907;SDS011;39320;53.214;6.556;2022-12-24T13:25:55;4.15;;;2.20;;
51907;SDS011;39320;53.214;6.556;2022-12-24T13:30:52;3.72;;;2.22;;
51907;SDS011;39320;53.214;6.556;2022-12-24T13:36:05;5.63;;;2.55;;
51907;SDS011;39320;53.214;6.556;2022-12-24T14:03:23;3.88;;;2.65;;
51907;SDS011;39320;53.214;6.556;2022-12-24T14:06:05;3.70;;;2.08;;
51907;SDS011;39320;53.214;6.556;2022-12-24T14:08:42;3.00;;;1.77;;
51907;SDS011;39320;53.214;6.556;2022-12-24T14:16:06;4.63;;;2.47;;
51907;SDS011;39320;53.214;6.556;2022-12-24T14:18:40;3.88;;;2.58;;
51907;SDS011;39320;53.214;6.556;2022-12-24T14:24:02;4.82;;;2.30;;
51907;SDS011;39320;53.214;6.556;2022-12-24T14:26:43;4.90;;;2.58;;
51907;SDS011;39320;53.214;6.556;2022-12-24T14:29:24;4.00;;;2.33;;
51907;SDS011;39320;53.214;6.556;2022-12-24T14:31:56;5.28;;;2.30;;
51907;SDS011;39320;53.214;6.556;2022-12-24T14:34:24;5.18;;;2.42;;
51907;SDS011;39320;53.214;6.556;2022-12-24T14:36:51;6.05;;;2.50;;
51907;SDS011;39320;53.214;6.556;2022-12-24T14:41:52;4.38;;;2.20;;
51907;SDS011;39320;53.214;6.556;2022-12-24T14:56:12;2.97;;;2.15;;
51907;SDS011;39320;53.214;6.556;2022-12-24T14:58:43;2.70;;;1.90;;
51907;SDS011;39320;53.214;6.556;2022-12-24T15:01:19;2.85;;;2.17;;
51907;SDS011;39320;53.214;6.556;2022-12-24T15:03:45;2.55;;;1.85;;
51907;SDS011;39320;53.214;6.556;2022-12-24T15:06:23;2.58;;;1.92;;
51907;SDS011;39320;53.214;6.556;2022-12-24T15:08:49;3.45;;;2.20;;
51907;SDS011;39320;53.214;6.556;2022-12-24T15:11:16;3.22;;;2.17;;
51907;SDS011;39320;53.214;6.556;2022-12-24T15:13:44;3.17;;;2.08;;
51907;SDS011;39320;53.214;6.556;2022-12-24T15:16:18;2.90;;;2.05;;
51907;SDS011;39320;53.214;6.556;2022-12-24T15:18:52;4.50;;;2.00;;
51907;SDS011;39320;53.214;6.556;2022-12-24T15:21:32;3.70;;;1.98;;
51907;SDS011;39320;53.214;6.556;2022-12-24T15:24:21;3.78;;;1.98;;
51907;SDS011;39320;53.214;6.556;2022-12-24T15:26:59;4.70;;;2.33;;
51907;SDS011;39320;53.214;6.556;2022-12-24T15:29:28;3.40;;;2.20;;
51907;SDS011;39320;53.214;6.556;2022-12-24T15:31:57;4.35;;;2.20;;
51907;SDS011;39320;53.214;6.556;2022-12-24T15:34:29;2.70;;;1.98;;
51907;SDS011;39320;53.214;6.556;2022-12-24T15:37:27;3.70;;;2.10;;
51907;SDS011;39320;53.214;6.556;2022-12-24T15:42:40;2.67;;;2.08;;
51907;SDS011;39320;53.214;6.556;2022-12-24T15:47:47;3.47;;;2.00;;
51907;SDS011;39320;53.214;6.556;2022-12-24T15:50:51;2.38;;;1.80;;
51907;SDS011;39320;53.214;6.556;2022-12-24T15:53:21;4.03;;;2.20;;
51907;SDS011;39320;53.214;6.556;2022-12-24T15:56:02;2.58;;;1.92;;
51907;SDS011;39320;53.214;6.556;2022-12-24T15:58:29;2.25;;;1.80;;
51907;SDS011;39320;53.214;6.556;2022-12-24T16:03:37;2.33;;;1.95;;
51907;SDS011;39320;53.214;6.556;2022-12-24T16:06:05;3.72;;;2.22;;
51907;SDS011;39320;53.214;6.556;2022-12-24T16:08:33;3.10;;;2.22;;
51907;SDS011;39320;53.214;6.556;2022-12-24T16:13:56;2.60;;;1.88;;
51907;SDS011;39320;53.214;6.556;2022-12-24T16:16:49;3.97;;;2.53;;
51907;SDS011;39320;53.214;6.556;2022-12-24T16:19:21;2.53;;;1.92;;
51907;SDS011;39320;53.214;6.556;2022-12-24T16:22:01;3.05;;;1.88;;
51907;SDS011;39320;53.214;6.556;2022-12-24T16:24:46;2.53;;;1.83;;
51907;SDS011;39320;53.214;6.556;2022-12-24T16:27:12;4.38;;;2.00;;
51907;SDS011;39320;53.214;6.556;2022-12-24T16:29:38;2.92;;;2.00;;
51907;SDS011;39320;53.214;6.556;2022-12-24T16:32:04;3.67;;;2.38;;
51907;SDS011;39320;53.214;6.556;2022-12-24T16:34:30;3.95;;;2.40;;
51907;SDS011;39320;53.214;6.556;2022-12-24T16:36:57;2.60;;;1.90;;
51907;SDS011;39320;53.214;6.556;2022-12-24T16:39:24;3.20;;;2.50;;
51907;SDS011;39320;53.214;6.556;2022-12-24T16:41:56;3.95;;;2.40;;
51907;SDS011;39320;53.214;6.556;2022-12-24T16:44:42;6.55;;;2.53;;
51907;SDS011;39320;53.214;6.556;2022-12-24T16:47:10;3.25;;;2.05;;
51907;SDS011;39320;53.214;6.556;2022-12-24T16:49:38;3.20;;;2.58;;
51907;SDS011;39320;53.214;6.556;2022-12-24T16:52:04;3.42;;;2.40;;
51907;SDS011;39320;53.214;6.556;2022-12-24T16:54:31;3.05;;;2.40;;
51907;SDS011;39320;53.214;6.556;2022-12-24T16:56:57;4.72;;;2.20;;
51907;SDS011;39320;53.214;6.556;2022-12-24T16:59:24;3.50;;;2.40;;
51907;SDS011;39320;53.214;6.556;2022-12-24T17:01:49;3.97;;;2.05;;
51907;SDS011;39320;53.214;6.556;2022-12-24T17:04:18;4.25;;;2.47;;
51907;SDS011;39320;53.214;6.556;2022-12-24T17:06:44;2.45;;;2.17;;
51907;SDS011;39320;53.214;6.556;2022-12-24T17:09:12;3.70;;;2.47;;
51907;SDS011;39320;53.214;6.556;2022-12-24T17:11:38;5.13;;;2.10;;
51907;SDS011;39320;53.214;6.556;2022-12-24T17:14:04;3.63;;;2.40;;
51907;SDS011;39320;53.214;6.556;2022-12-24T17:16:29;3.38;;;2.40;;
51907;SDS011;39320;53.214;6.556;2022-12-24T17:18:55;3.38;;;2.17;;
51907;SDS011;39320;53.214;6.556;2022-12-24T17:21:21;4.30;;;2.42;;
51907;SDS011;39320;53.214;6.556;2022-12-24T17:23:47;3.85;;;2.63;;
51907;SDS011;39320;53.214;6.556;2022-12-24T17:26:13;4.05;;;2.63;;
51907;SDS011;39320;53.214;6.556;2022-12-24T17:28:39;3.53;;;2.22;;
51907;SDS011;39320;53.214;6.556;2022-12-24T17:31:06;4.50;;;2.92;;
51907;SDS011;39320;53.214;6.556;2022-12-24T17:33:33;3.70;;;3.30;;
51907;SDS011;39320;53.214;6.556;2022-12-24T17:36:00;5.25;;;3.03;;
51907;SDS011;39320;53.214;6.556;2022-12-24T17:38:26;4.53;;;2.55;;
51907;SDS011;39320;53.214;6.556;2022-12-24T17:40:58;2.45;;;2.25;;
51907;SDS011;39320;53.214;6.556;2022-12-24T17:43:32;3.03;;;2.33;;
51907;SDS011;39320;53.214;6.556;2022-12-24T17:46:04;3.10;;;2.05;;